createdAt,value
2019-04-10T17:55:27.327Z,16.00
2019-04-10T17:57:58.246Z,13.63
2019-04-10T18:00:45.364Z,10.23
2019-04-10T18:03:17.876Z,18.23
2019-04-10T18:05:45.283Z,18.53
2019-04-10T18:08:14.041Z,16.73
2019-04-10T18:10:49.539Z,17.20
2019-04-10T18:13:13.798Z,15.83
2019-04-10T18:15:44.106Z,13.97
2019-04-10T18:18:13.690Z,12.95
2019-04-10T18:20:42.685Z,9.17
2019-04-10T18:23:11.506Z,15.80
2019-04-10T18:25:40.208Z,14.17
2019-04-10T18:28:09.619Z,7.83
2019-04-10T18:30:38.829Z,9.60
2019-04-10T18:33:07.632Z,15.70
2019-04-10T18:35:36.663Z,13.53
2019-04-10T18:38:06.016Z,13.87
2019-04-10T18:40:35.149Z,12.83
2019-04-10T18:43:04.398Z,9.30
2019-04-10T18:45:33.684Z,13.73
2019-04-10T18:48:02.771Z,17.87
2019-04-10T18:50:34.026Z,7.67
2019-04-10T18:53:03.730Z,9.93
2019-04-10T18:55:32.409Z,10.67
2019-04-10T18:58:03.795Z,11.90
2019-04-10T19:01:07.954Z,10.00
2019-04-10T19:04:04.319Z,10.57
2019-04-10T19:07:11.305Z,14.13
2019-04-10T19:09:40.974Z,12.97
2019-04-10T19:12:10.678Z,14.90
2019-04-10T19:14:40.612Z,21.77
2019-04-10T19:17:28.865Z,13.17
2019-04-10T19:19:59.513Z,13.87
2019-04-10T19:22:29.046Z,10.47
2019-04-10T19:24:58.351Z,13.43
2019-04-10T19:27:28.427Z,10.57
2019-04-10T19:29:57.567Z,13.87
2019-04-10T19:32:33.833Z,13.33
2019-04-10T19:35:02.893Z,13.07
2019-04-10T19:37:32.457Z,14.10
2019-04-10T19:40:02.918Z,15.63
2019-04-10T19:42:31.787Z,9.83
2019-04-10T19:45:02.142Z,11.00
2019-04-10T19:47:32.587Z,13.33
2019-04-10T19:50:01.515Z,10.10
2019-04-10T19:52:31.030Z,9.43
2019-04-10T19:55:01.260Z,12.80
2019-04-10T19:57:31.159Z,6.60
2019-04-10T20:00:01.405Z,8.35
2019-04-10T20:02:31.251Z,7.90
2019-04-10T20:05:01.251Z,8.60
2019-04-10T20:07:31.180Z,7.43
2019-04-10T20:10:02.034Z,7.20
2019-04-10T20:12:33.344Z,10.60
2019-04-10T20:15:02.618Z,12.00
2019-04-10T20:17:32.997Z,13.88
2019-04-10T20:20:04.712Z,9.63
2019-04-10T20:22:34.986Z,8.53
2019-04-10T20:25:06.094Z,12.30
2019-04-10T20:27:36.200Z,9.40
2019-04-10T20:30:05.873Z,11.90
2019-04-10T20:32:36.318Z,8.70
2019-04-10T20:35:05.286Z,13.20
2019-04-10T20:37:34.776Z,8.37
2019-04-10T20:40:03.574Z,11.20
2019-04-10T20:42:32.773Z,9.13
2019-04-10T20:45:01.256Z,8.60
2019-04-10T20:47:30.934Z,8.63
2019-04-10T20:50:00.088Z,9.17
2019-04-10T20:52:28.952Z,9.73
2019-04-10T20:54:59.322Z,14.20
2019-04-10T20:57:29.696Z,10.27
2019-04-10T20:59:59.515Z,13.33
2019-04-10T21:02:28.494Z,16.53
2019-04-10T21:05:03.152Z,6.03
2019-04-10T21:07:29.754Z,13.10
2019-04-10T21:09:58.754Z,8.73
2019-04-10T21:12:28.015Z,13.47
2019-04-10T21:14:57.085Z,9.87
2019-04-10T21:17:26.182Z,5.37
2019-04-10T21:19:55.955Z,9.97
2019-04-10T21:22:28.587Z,8.63
2019-04-10T21:24:58.367Z,7.80
2019-04-10T21:27:27.964Z,7.63
2019-04-10T21:30:05.616Z,6.73
2019-04-10T21:32:58.250Z,4.97
2019-04-10T21:35:32.660Z,9.17
2019-04-10T21:38:02.600Z,5.77
2019-04-10T21:40:31.305Z,5.30
2019-04-10T21:43:01.494Z,7.20
2019-04-10T21:45:30.262Z,10.00
2019-04-10T21:47:59.950Z,4.83
2019-04-10T21:50:29.345Z,4.07
2019-04-10T21:52:58.168Z,7.08
2019-04-10T21:55:27.192Z,7.57
2019-04-10T21:57:57.501Z,5.93
2019-04-10T22:00:45.152Z,7.80
2019-04-10T22:03:14.724Z,5.00
2019-04-10T22:05:46.501Z,7.50
2019-04-10T22:08:25.988Z,4.23
2019-04-10T22:10:54.905Z,5.90
2019-04-10T22:13:24.038Z,6.23
2019-04-10T22:15:53.917Z,3.23
2019-04-10T22:18:23.321Z,3.33
2019-04-10T22:20:52.437Z,9.93
2019-04-10T22:23:22.432Z,7.37
2019-04-10T22:25:52.257Z,5.10
2019-04-10T22:28:21.357Z,4.10
2019-04-10T22:30:50.603Z,2.60
2019-04-10T22:33:20.171Z,3.37
2019-04-10T22:35:50.372Z,8.67
2019-04-10T22:38:19.393Z,5.50
2019-04-10T22:40:48.320Z,3.00
2019-04-10T22:43:18.153Z,6.70
2019-04-10T22:45:46.979Z,5.03
2019-04-10T22:48:16.846Z,3.73
2019-04-10T22:50:45.439Z,7.20
2019-04-10T22:53:15.180Z,4.20
2019-04-10T22:55:44.416Z,7.50
2019-04-10T22:58:13.318Z,5.13
2019-04-10T23:00:42.107Z,5.27
2019-04-10T23:03:11.459Z,5.70
2019-04-10T23:05:40.661Z,5.70
2019-04-10T23:08:09.817Z,5.30
2019-04-10T23:10:39.239Z,4.97
2019-04-10T23:13:08.975Z,6.07
2019-04-10T23:15:39.755Z,5.30
2019-04-10T23:18:09.536Z,4.67
2019-04-10T23:20:39.723Z,4.77
2019-04-10T23:23:09.030Z,7.53
2019-04-10T23:25:37.758Z,5.87
2019-04-10T23:28:07.459Z,5.87
2019-04-10T23:30:37.083Z,5.47
2019-04-10T23:33:06.062Z,10.10
2019-04-10T23:35:35.716Z,9.50
2019-04-10T23:38:04.418Z,4.47
2019-04-10T23:40:34.774Z,8.53
2019-04-10T23:43:11.288Z,8.73
2019-04-10T23:45:34.615Z,6.07
2019-04-10T23:48:04.541Z,6.17
2019-04-10T23:50:34.555Z,7.40
2019-04-10T23:53:04.480Z,10.40
2019-04-10T23:55:34.288Z,7.70
2019-04-10T23:58:03.566Z,8.00
